createdAt,value
2022-10-11T00:01:25.733Z,10.18
2022-10-11T00:03:52.357Z,12.35
2022-10-11T00:06:18.942Z,8.80
2022-10-11T00:08:45.531Z,15.93
2022-10-11T00:11:12.111Z,8.68
2022-10-11T00:13:38.928Z,10.50
2022-10-11T00:16:10.902Z,14.18
2022-10-11T00:18:38.122Z,8.70
2022-10-11T00:21:07.267Z,12.68
2022-10-11T00:23:34.297Z,13.60
2022-10-11T00:26:03.874Z,14.07
2022-10-11T00:28:33.519Z,10.10
2022-10-11T00:31:00.464Z,9.20
2022-10-11T00:33:27.102Z,10.75
2022-10-11T00:35:53.731Z,11.68
2022-10-11T00:38:20.523Z,10.63
2022-10-11T00:40:47.295Z,8.13
2022-10-11T00:43:18.189Z,10.23
2022-10-11T00:46:10.581Z,10.13
2022-10-11T00:48:41.568Z,12.60
2022-10-11T00:51:23.237Z,11.27
2022-10-11T00:53:52.622Z,14.20
2022-10-11T00:56:32.688Z,13.07
2022-10-11T00:59:02.518Z,13.13
2022-10-11T01:01:29.374Z,11.65
2022-10-11T01:03:56.765Z,9.13
2022-10-11T01:06:23.995Z,11.38
2022-10-11T01:08:52.123Z,8.07
2022-10-11T01:11:23.190Z,13.98
2022-10-11T01:14:27.961Z,13.63
2022-10-11T01:17:08.993Z,11.23
2022-10-11T01:19:56.667Z,8.30
2022-10-11T01:22:53.407Z,7.30
2022-10-11T01:25:57.010Z,7.65
2022-10-11T01:28:48.875Z,9.70
2022-10-11T01:31:27.730Z,12.77
2022-10-11T01:34:05.062Z,9.13
2022-10-11T01:36:50.046Z,9.20
2022-10-11T01:39:36.929Z,11.75
2022-10-11T01:42:07.632Z,13.73
2022-10-11T01:44:36.049Z,13.98
2022-10-11T01:47:02.622Z,10.35
2022-10-11T01:49:29.290Z,7.68
2022-10-11T01:51:59.963Z,10.50
2022-10-11T01:55:12.061Z,16.92
2022-10-11T01:58:00.412Z,10.75
2022-10-11T02:00:35.462Z,11.32
2022-10-11T02:03:39.235Z,9.50
2022-10-11T02:06:27.850Z,9.65
2022-10-11T02:09:08.362Z,9.55
2022-10-11T02:11:36.450Z,10.52
2022-10-11T02:14:17.163Z,14.77
2022-10-11T02:16:49.423Z,5.65
2022-10-11T02:19:19.804Z,7.43
2022-10-11T02:21:53.148Z,14.88
2022-10-11T02:24:44.520Z,11.20
2022-10-11T02:27:12.541Z,7.75
2022-10-11T02:29:41.927Z,6.18
2022-10-11T02:32:10.222Z,11.15
2022-10-11T02:34:44.808Z,14.02
2022-10-11T02:37:41.165Z,15.07
2022-10-11T02:40:12.978Z,10.95
2022-10-11T02:42:51.444Z,8.68
2022-10-11T02:45:31.514Z,9.57
2022-10-11T02:47:58.859Z,7.38
2022-10-11T02:50:26.618Z,15.40
2022-10-11T02:52:53.253Z,6.95
2022-10-11T02:55:20.122Z,11.43
2022-10-11T02:57:46.710Z,7.45
2022-10-11T03:00:14.321Z,10.10
2022-10-11T03:02:41.108Z,10.40
2022-10-11T03:05:08.276Z,10.30
2022-10-11T03:07:34.881Z,15.02
2022-10-11T03:10:01.461Z,7.00
2022-10-11T03:12:28.007Z,11.27
2022-10-11T03:14:54.685Z,15.43
2022-10-11T03:17:36.200Z,18.35
2022-10-11T03:20:05.220Z,13.90
2022-10-11T03:22:32.043Z,12.25
2022-10-11T03:25:02.731Z,13.27
2022-10-11T03:27:30.958Z,13.35
2022-10-11T03:29:57.845Z,17.05
2022-10-11T03:32:24.570Z,13.00
2022-10-11T03:34:51.188Z,15.23
2022-10-11T03:37:18.241Z,13.68
2022-10-11T03:39:45.753Z,17.25
2022-10-11T03:42:13.711Z,14.38
2022-10-11T03:44:42.135Z,15.02
2022-10-11T03:47:08.973Z,15.43
2022-10-11T03:49:38.815Z,14.85
2022-10-11T03:52:07.914Z,14.07
2022-10-11T03:54:34.530Z,11.43
2022-10-11T03:57:01.080Z,14.70
2022-10-11T03:59:27.685Z,19.00
2022-10-11T04:01:54.505Z,15.82
2022-10-11T04:04:21.134Z,15.75
2022-10-11T04:06:47.685Z,16.88
2022-10-11T04:09:14.291Z,18.13
2022-10-11T04:11:41.100Z,16.70
2022-10-11T04:14:07.854Z,25.00
2022-10-11T04:16:35.232Z,13.77
2022-10-11T04:19:01.985Z,9.65
2022-10-11T04:21:28.522Z,18.63
2022-10-11T04:23:55.345Z,11.55
2022-10-11T04:26:22.143Z,18.75
2022-10-11T04:28:48.711Z,14.35
2022-10-11T04:31:15.339Z,9.73
2022-10-11T04:33:41.929Z,11.02
2022-10-11T04:36:09.027Z,12.45
2022-10-11T04:38:35.971Z,12.57
2022-10-11T04:41:08.104Z,13.73
2022-10-11T04:43:34.747Z,16.15
2022-10-11T04:46:01.790Z,10.40
2022-10-11T04:48:28.752Z,15.07
2022-10-11T04:50:55.546Z,9.68
2022-10-11T04:53:24.872Z,13.25
2022-10-11T04:56:04.350Z,17.05
2022-10-11T04:58:32.411Z,21.70
2022-10-11T05:00:59.168Z,16.38
2022-10-11T05:03:26.798Z,19.05
2022-10-11T05:05:53.461Z,20.60
2022-10-11T05:08:20.426Z,16.17
2022-10-11T05:11:04.370Z,9.50
2022-10-11T05:13:31.929Z,15.68
2022-10-11T05:15:58.875Z,16.58
2022-10-11T05:18:25.832Z,17.05
2022-10-11T05:21:25.609Z,16.05
2022-10-11T05:23:53.829Z,19.35
2022-10-11T05:26:20.748Z,21.77
2022-10-11T05:28:48.114Z,13.10
2022-10-11T05:31:15.860Z,24.90
2022-10-11T05:33:43.048Z,16.30
2022-10-11T05:36:10.132Z,13.68
2022-10-11T05:38:38.094Z,12.35
2022-10-11T05:41:06.231Z,12.15
2022-10-11T05:43:33.225Z,18.23
2022-10-11T05:46:00.270Z,19.67
2022-10-11T05:48:28.482Z,20.05
2022-10-11T05:51:05.330Z,12.27
2022-10-11T05:53:32.231Z,16.55
2022-10-11T05:55:59.751Z,17.88
2022-10-11T05:58:26.842Z,19.27
2022-10-11T06:00:53.611Z,25.13
2022-10-11T06:03:21.105Z,24.98
2022-10-11T06:05:48.007Z,27.15
2022-10-11T06:08:15.815Z,24.10
2022-10-11T06:10:42.622Z,19.98
2022-10-11T06:13:09.599Z,14.52
2022-10-11T06:15:39.154Z,15.35
2022-10-11T06:18:05.786Z,10.95
2022-10-11T06:20:32.805Z,15.45
2022-10-11T06:22:59.565Z,17.52
2022-10-11T06:25:26.148Z,16.20
2022-10-11T06:27:52.704Z,11.68
2022-10-11T06:30:19.286Z,12.38
2022-10-11T06:32:46.060Z,12.93
2022-10-11T06:35:13.325Z,18.42
2022-10-11T06:37:39.916Z,11.20
2022-10-11T06:40:07.386Z,18.25
2022-10-11T06:42:33.969Z,14.82
2022-10-11T06:45:00.779Z,12.05
2022-10-11T06:47:27.513Z,16.90
2022-10-11T06:49:54.111Z,11.40
2022-10-11T06:52:20.666Z,8.60
2022-10-11T06:54:47.269Z,14.63
2022-10-11T06:57:15.836Z,11.85
2022-10-11T06:59:42.485Z,10.13
2022-10-11T07:02:10.080Z,11.25
2022-10-11T07:04:36.677Z,9.50
2022-10-11T07:07:03.233Z,10.13
2022-10-11T07:09:30.831Z,11.77
2022-10-11T07:11:57.620Z,15.95
2022-10-11T07:14:24.288Z,11.80
2022-10-11T07:16:51.008Z,10.98
2022-10-11T07:19:17.573Z,16.05
2022-10-11T07:21:44.374Z,14.85
2022-10-11T07:24:11.081Z,16.45
2022-10-11T07:26:38.947Z,12.80
2022-10-11T07:29:08.175Z,8.32
2022-10-11T07:31:38.624Z,7.30
2022-10-11T07:34:05.430Z,8.20
2022-10-11T07:36:32.254Z,15.50
2022-10-11T07:38:58.858Z,9.90
2022-10-11T07:41:26.937Z,12.30
2022-10-11T07:43:55.037Z,13.73
2022-10-11T07:46:21.880Z,8.95
2022-10-11T07:48:50.963Z,6.80
2022-10-11T07:51:22.287Z,16.23
2022-10-11T07:54:01.353Z,9.30
2022-10-11T07:59:00.662Z,11.68
2022-10-11T08:01:28.803Z,12.30
2022-10-11T08:03:59.046Z,11.07
2022-10-11T08:06:31.692Z,12.55
2022-10-11T08:09:00.602Z,11.55
2022-10-11T08:11:33.819Z,14.50
2022-10-11T08:14:01.754Z,19.88
2022-10-11T08:16:28.434Z,11.75
2022-10-11T08:18:57.042Z,7.03
2022-10-11T08:21:24.301Z,8.82
2022-10-11T08:23:51.368Z,15.68
2022-10-11T08:26:18.194Z,11.90
2022-10-11T08:28:44.891Z,9.48
2022-10-11T08:31:14.009Z,5.50
2022-10-11T08:33:42.116Z,13.73
2022-10-11T08:36:10.253Z,7.45
2022-10-11T08:38:38.020Z,13.27
2022-10-11T08:41:23.150Z,11.80
2022-10-11T08:45:10.058Z,13.52
2022-10-11T08:47:44.729Z,10.18
2022-10-11T08:50:20.885Z,9.50
2022-10-11T08:53:02.697Z,8.70
2022-10-11T08:55:39.934Z,7.57
2022-10-11T08:58:06.950Z,13.48
2022-10-11T09:00:38.156Z,10.50
2022-10-11T09:03:28.232Z,11.05
2022-10-11T09:06:32.113Z,9.63
2022-10-11T09:09:34.224Z,10.00
2022-10-11T09:12:23.164Z,6.87
2022-10-11T09:15:14.926Z,13.23
2022-10-11T09:18:19.203Z,11.98
2022-10-11T09:21:38.473Z,10.40
2022-10-11T09:24:58.227Z,7.75
2022-10-11T10:00:25.068Z,10.23
2022-10-11T10:02:54.793Z,7.13
2022-10-11T10:05:26.613Z,11.55
2022-10-11T10:08:31.899Z,16.27
2022-10-11T10:11:02.528Z,15.25
2022-10-11T10:13:52.220Z,7.85
2022-10-11T10:16:28.308Z,9.57
2022-10-11T10:18:58.152Z,8.80
2022-10-11T10:21:31.661Z,7.03
2022-10-11T10:24:03.191Z,15.15
2022-10-11T10:26:30.953Z,10.47
2022-10-11T10:29:24.892Z,6.72
2022-10-11T10:35:01.028Z,10.90
2022-10-11T10:37:39.903Z,6.82
2022-10-11T10:40:14.417Z,11.75
2022-10-11T10:42:41.333Z,7.70
2022-10-11T10:45:20.087Z,8.80
2022-10-11T10:48:18.446Z,12.18
2022-10-11T10:50:47.886Z,9.38
2022-10-11T10:53:37.650Z,9.40
2022-10-11T10:56:38.142Z,5.65
2022-10-11T10:59:44.777Z,7.28
2022-10-11T11:02:40.341Z,6.80
2022-10-11T11:05:55.886Z,11.70
2022-10-11T11:09:13.643Z,14.60
2022-10-11T11:12:13.943Z,10.00
2022-10-11T11:15:12.355Z,9.00
2022-10-11T11:17:57.065Z,9.65
2022-10-11T11:20:37.189Z,12.18
2022-10-11T11:23:14.101Z,9.95
2022-10-11T11:26:08.580Z,8.63
2022-10-11T11:29:02.635Z,7.55
2022-10-11T11:31:53.036Z,10.32
2022-10-11T11:34:37.909Z,9.50
2022-10-11T11:37:13.483Z,7.25
2022-10-11T11:39:46.232Z,8.70
2022-10-11T11:42:18.263Z,8.55
2022-10-11T11:44:50.669Z,11.13
2022-10-11T11:50:29.606Z,12.90
2022-10-11T11:53:05.387Z,14.68
2022-10-11T11:56:11.457Z,10.20
2022-10-11T11:58:53.242Z,9.98
2022-10-11T12:01:51.785Z,11.23
2022-10-11T12:04:42.196Z,15.38
2022-10-11T12:07:17.094Z,11.63
2022-10-11T12:09:51.481Z,9.90
2022-10-11T12:12:37.128Z,10.13
2022-10-11T12:15:03.598Z,14.00
2022-10-11T12:17:30.533Z,14.35
2022-10-11T12:20:12.125Z,12.65
2022-10-11T12:22:51.733Z,8.70
2022-10-11T12:25:27.249Z,10.00
2022-10-11T12:27:57.606Z,18.75
2022-10-11T12:30:56.245Z,10.85
2022-10-11T12:33:46.081Z,17.95
2022-10-11T12:36:44.093Z,14.50
2022-10-11T12:39:43.476Z,11.25
2022-10-11T12:42:36.064Z,10.07
2022-10-11T12:45:33.415Z,8.52
2022-10-11T12:48:46.232Z,10.88
2022-10-11T12:51:49.585Z,9.77
2022-10-11T12:54:41.857Z,9.05
2022-10-11T12:57:49.466Z,9.23
2022-10-11T13:00:31.800Z,12.68
2022-10-11T13:03:05.084Z,15.32
2022-10-11T13:05:48.672Z,13.52
2022-10-11T13:08:26.949Z,11.98
2022-10-11T13:10:59.103Z,14.60
2022-10-11T13:13:37.560Z,12.60
2022-10-11T13:16:17.802Z,14.82
2022-10-11T13:18:47.457Z,13.52
2022-10-11T13:21:49.683Z,12.93
2022-10-11T13:24:19.214Z,16.33
2022-10-11T13:26:50.613Z,11.98
2022-10-11T13:29:23.808Z,10.57
2022-10-11T13:31:50.461Z,15.10
2022-10-11T13:34:22.390Z,16.70
2022-10-11T13:36:56.470Z,16.88
2022-10-11T13:39:31.123Z,13.25
2022-10-11T13:42:00.184Z,14.55
2022-10-11T13:44:34.105Z,13.95
2022-10-11T13:47:01.016Z,14.40
2022-10-11T13:49:40.118Z,11.57
2022-10-11T13:52:30.154Z,11.95
2022-10-11T13:55:32.153Z,15.00
2022-10-11T13:58:01.053Z,15.98
2022-10-11T14:00:35.195Z,11.77
2022-10-11T14:03:22.618Z,17.50
2022-10-11T14:05:59.181Z,13.63
2022-10-11T14:08:39.157Z,21.08
2022-10-11T14:11:07.103Z,18.42
2022-10-11T14:13:49.701Z,16.10
2022-10-11T14:19:10.026Z,15.30
2022-10-11T14:22:07.378Z,12.55
2022-10-11T14:24:33.925Z,13.23
2022-10-11T14:27:05.452Z,13.63
2022-10-11T14:29:35.442Z,19.70
2022-10-11T14:32:08.944Z,18.23
2022-10-11T14:34:35.794Z,15.20
2022-10-11T14:37:02.801Z,14.75
2022-10-11T14:39:32.540Z,17.77
2022-10-11T14:41:59.649Z,11.38
2022-10-11T14:44:26.584Z,13.13
2022-10-11T14:46:55.004Z,11.18
2022-10-11T14:49:27.630Z,26.33
2022-10-11T14:51:56.042Z,17.27
2022-10-11T14:54:24.988Z,16.70
2022-10-11T14:56:53.034Z,35.13
2022-10-11T14:59:23.548Z,15.27
2022-10-11T15:01:54.837Z,12.43
2022-10-11T15:04:22.539Z,36.88
2022-10-11T15:06:49.420Z,14.05
2022-10-11T15:09:17.138Z,15.52
2022-10-11T15:11:44.106Z,12.68
2022-10-11T15:14:10.647Z,14.43
2022-10-11T15:16:37.263Z,12.02
2022-10-11T15:19:04.266Z,16.58
2022-10-11T15:21:31.138Z,24.52
2022-10-11T15:23:57.999Z,14.77
2022-10-11T15:26:27.106Z,24.52
2022-10-11T15:28:55.233Z,13.40
2022-10-11T15:31:23.048Z,14.27
2022-10-11T15:33:52.893Z,18.25
2022-10-11T15:36:23.286Z,21.30
2022-10-11T15:38:50.131Z,16.45
2022-10-11T15:41:19.959Z,16.40
2022-10-11T15:43:48.389Z,17.70
2022-10-11T15:46:20.732Z,17.60
2022-10-11T15:51:13.871Z,22.45
2022-10-11T15:53:40.849Z,20.70
2022-10-11T15:56:10.113Z,20.27
2022-10-11T15:58:39.974Z,21.27
2022-10-11T16:01:15.184Z,20.80
2022-10-11T16:03:41.894Z,23.05
2022-10-11T16:06:08.892Z,20.98
2022-10-11T16:08:36.546Z,17.42
2022-10-11T16:11:04.337Z,24.80
2022-10-11T16:13:31.290Z,17.00
2022-10-11T16:15:58.061Z,26.77
2022-10-11T16:18:24.641Z,22.73
2022-10-11T16:20:52.026Z,22.92
2022-10-11T16:23:20.710Z,16.13
2022-10-11T16:25:57.645Z,19.70
2022-10-11T16:28:24.521Z,20.33
2022-10-11T16:30:51.126Z,25.27
2022-10-11T16:33:17.697Z,23.00
2022-10-11T16:35:44.371Z,18.20
2022-10-11T16:38:11.131Z,27.65
2022-10-11T16:40:39.222Z,26.35
2022-10-11T16:43:07.899Z,20.77
2022-10-11T16:45:35.460Z,24.30
2022-10-11T16:48:02.428Z,19.35
2022-10-11T16:50:29.211Z,21.17
2022-10-11T16:52:56.079Z,25.33
2022-10-11T16:55:22.903Z,21.77
2022-10-11T16:57:49.627Z,17.75
2022-10-11T17:00:16.964Z,21.98
2022-10-11T17:02:43.502Z,29.27
2022-10-11T17:05:10.117Z,23.92
2022-10-11T17:07:36.722Z,25.58
2022-10-11T17:10:04.438Z,22.27
2022-10-11T17:12:32.317Z,23.40
2022-10-11T17:14:58.892Z,23.25
2022-10-11T17:17:26.406Z,31.73
2022-10-11T17:19:53.001Z,23.08
2022-10-11T17:22:20.184Z,41.00
2022-10-11T17:24:47.407Z,25.85
2022-10-11T17:27:14.105Z,31.73
2022-10-11T17:29:40.725Z,30.38
2022-10-11T17:32:07.543Z,26.25
2022-10-11T17:34:37.143Z,29.23
2022-10-11T17:37:03.885Z,30.05
2022-10-11T17:39:30.853Z,32.60
2022-10-11T17:41:57.843Z,29.35
2022-10-11T17:44:24.410Z,30.20
2022-10-11T17:46:51.028Z,25.40
2022-10-11T17:49:18.286Z,35.60
2022-10-11T17:51:44.888Z,35.45
2022-10-11T17:54:12.835Z,39.42
2022-10-11T17:56:41.949Z,30.95
2022-10-11T17:59:18.470Z,41.28
2022-10-11T18:01:45.267Z,25.65
2022-10-11T18:04:16.562Z,30.50
2022-10-11T18:06:45.459Z,27.45
2022-10-11T18:09:13.461Z,30.00
2022-10-11T18:11:40.270Z,27.08
2022-10-11T18:14:07.597Z,38.20
2022-10-11T18:16:35.418Z,34.00
2022-10-11T18:19:04.089Z,37.47
2022-10-11T18:21:34.234Z,38.10
2022-10-11T18:24:03.216Z,33.97
2022-10-11T18:26:30.877Z,29.27
2022-10-11T18:28:58.520Z,34.08
2022-10-11T18:31:28.314Z,33.53
2022-10-11T18:33:55.211Z,35.28
2022-10-11T18:36:24.862Z,32.00
2022-10-11T18:38:56.549Z,32.30
2022-10-11T18:41:25.112Z,29.77
2022-10-11T18:43:54.550Z,36.53
2022-10-11T18:46:22.480Z,36.38
2022-10-11T18:48:51.140Z,46.67
2022-10-11T18:51:20.740Z,34.88
2022-10-11T18:53:48.324Z,36.17
2022-10-11T18:56:17.121Z,32.75
2022-10-11T18:58:44.703Z,39.00
2022-10-11T19:01:15.976Z,37.70
2022-10-11T19:03:44.205Z,41.90
2022-10-11T19:06:18.949Z,34.80
2022-10-11T19:08:50.873Z,36.50
2022-10-11T19:11:25.450Z,39.55
2022-10-11T19:14:00.826Z,47.72
2022-10-11T19:16:29.800Z,34.88
2022-10-11T19:18:56.969Z,38.97
2022-10-11T19:21:23.669Z,28.83
2022-10-11T19:23:50.896Z,35.75
2022-10-11T19:26:27.438Z,39.95
2022-10-11T19:29:05.136Z,40.88
2022-10-11T19:31:33.178Z,33.90
2022-10-11T19:34:00.195Z,25.80
2022-10-11T19:36:33.975Z,37.13
2022-10-11T19:39:04.115Z,29.17
2022-10-11T19:41:30.706Z,31.25
2022-10-11T19:44:00.501Z,31.38
2022-10-11T19:46:49.884Z,32.40
2022-10-11T19:49:17.626Z,33.92
2022-10-11T19:51:44.273Z,29.13
2022-10-11T19:54:12.981Z,38.53
2022-10-11T19:56:39.998Z,40.75
2022-10-11T19:59:06.645Z,33.42
2022-10-11T20:01:35.571Z,28.88
2022-10-11T20:04:04.899Z,29.73
2022-10-11T20:06:38.079Z,36.25
2022-10-11T20:11:53.740Z,42.03
2022-10-11T20:14:20.610Z,30.33
2022-10-11T20:16:49.928Z,29.67
2022-10-11T20:19:16.609Z,32.85
2022-10-11T20:21:44.152Z,30.08
2022-10-11T20:24:10.757Z,31.42
2022-10-11T20:26:37.453Z,29.60
2022-10-11T20:29:04.147Z,28.80
2022-10-11T20:31:33.108Z,27.58
2022-10-11T20:34:02.182Z,27.75
2022-10-11T20:36:30.213Z,32.30
2022-10-11T20:38:58.522Z,29.63
2022-10-11T20:41:27.873Z,26.08
2022-10-11T20:43:57.641Z,28.35
2022-10-11T20:46:31.409Z,30.88
2022-10-11T20:49:03.573Z,38.20
2022-10-11T20:51:35.086Z,28.48
2022-10-11T20:54:04.099Z,38.88
2022-10-11T20:56:30.863Z,33.63
2022-10-11T20:58:58.195Z,30.58
2022-10-11T21:01:33.487Z,32.13
2022-10-11T21:04:01.613Z,32.75
2022-10-11T21:06:29.631Z,32.65
2022-10-11T21:08:57.323Z,30.83
2022-10-11T21:11:28.734Z,30.73
2022-10-11T21:14:00.725Z,34.33
2022-10-11T21:16:27.582Z,30.02
2022-10-11T21:18:56.065Z,34.83
2022-10-11T21:21:24.075Z,29.85
2022-10-11T21:23:56.853Z,32.88
2022-10-11T21:26:23.516Z,36.88
2022-10-11T21:28:50.231Z,35.38
2022-10-11T21:31:18.991Z,31.90
2022-10-11T21:33:45.640Z,33.55
2022-10-11T21:36:15.183Z,25.13
2022-10-11T21:38:42.259Z,30.50
2022-10-11T21:41:12.749Z,32.03
2022-10-11T21:43:39.635Z,28.42
2022-10-11T21:46:20.518Z,35.78
2022-10-11T21:48:48.118Z,35.50
2022-10-11T21:51:18.191Z,36.72
2022-10-11T21:53:44.975Z,30.15
2022-10-11T21:56:11.544Z,32.28
2022-10-11T21:58:38.128Z,29.85
2022-10-11T22:01:05.079Z,30.13
2022-10-11T22:03:31.973Z,32.38
2022-10-11T22:06:01.985Z,33.42
2022-10-11T22:08:28.592Z,31.80
2022-10-11T22:10:57.938Z,33.40
2022-10-11T22:13:25.690Z,31.88
2022-10-11T22:15:52.366Z,37.60
2022-10-11T22:18:19.389Z,40.30
2022-10-11T22:20:45.934Z,26.25
2022-10-11T22:23:12.612Z,30.08
2022-10-11T22:25:39.631Z,41.00
2022-10-11T22:28:07.022Z,24.80
2022-10-11T22:30:34.131Z,30.42
2022-10-11T22:33:00.698Z,24.27
2022-10-11T22:35:27.292Z,27.10
2022-10-11T22:37:53.878Z,36.45
2022-10-11T22:40:20.846Z,31.25
2022-10-11T22:42:47.978Z,27.70
2022-10-11T22:45:14.666Z,29.45
2022-10-11T22:47:41.238Z,33.08
2022-10-11T22:50:08.186Z,30.38
2022-10-11T22:52:34.760Z,41.58
2022-10-11T22:55:01.658Z,32.47
2022-10-11T22:57:28.206Z,27.25
2022-10-11T22:59:54.786Z,24.90
2022-10-11T23:02:21.392Z,35.90
2022-10-11T23:04:47.983Z,30.05
2022-10-11T23:07:14.844Z,26.70
2022-10-11T23:09:41.394Z,31.58
2022-10-11T23:12:08.128Z,31.92
2022-10-11T23:14:34.753Z,31.08
2022-10-11T23:17:01.399Z,29.58
2022-10-11T23:19:28.163Z,35.13
2022-10-11T23:21:54.743Z,28.98
2022-10-11T23:24:21.356Z,25.15
2022-10-11T23:26:47.905Z,23.38
2022-10-11T23:29:14.437Z,31.95
2022-10-11T23:31:41.258Z,28.83
2022-10-11T23:34:07.847Z,40.25
2022-10-11T23:36:34.434Z,23.67
2022-10-11T23:39:01.002Z,31.45
2022-10-11T23:41:29.718Z,25.13
2022-10-11T23:43:57.345Z,34.80
2022-10-11T23:46:24.324Z,27.95
2022-10-11T23:48:51.101Z,26.13
2022-10-11T23:51:17.692Z,24.60
2022-10-11T23:53:44.340Z,24.35
2022-10-11T23:56:11.342Z,40.08
2022-10-11T23:58:38.173Z,25.10
